Time;durP1;ratioP1;P1;durP2;ratioP2;P2;SDS_P1;SDS_P2;PMS_P1;PMS_P2;Temp;Humidity;BMP_temperature;BMP_pressure;BME280_temperature;BME280_humidity;BME280_pressure;Samples;Min_cycle;Max_cycle;Signal;HPM_P1;HPM_P2
2023/08/04 00:00:24;;;;;;;2.60;2.50;;;26.10;62.40;;;;;;5042074;28;20463;-81
2023/08/04 00:02:52;;;;;;;2.87;2.67;;;26.10;62.40;;;;;;5043404;28;20531;-81
2023/08/04 00:05:20;;;;;;;2.60;2.40;;;26.10;62.50;;;;;;5046284;28;20455;-81
2023/08/04 00:07:50;;;;;;;2.60;2.40;;;26.10;62.50;;;;;;5043811;28;20474;-81
2023/08/04 00:10:18;;;;;;;1.93;1.83;;;26.10;62.50;;;;;;5047570;28;20455;-81
2023/08/04 00:12:47;;;;;;;2.50;2.30;;;26.00;62.50;;;;;;5047359;28;20473;-82
2023/08/04 00:15:15;;;;;;;2.40;2.30;;;26.00;62.50;;;;;;5047838;28;20519;-81
2023/08/04 00:17:43;;;;;;;1.77;1.67;;;26.00;62.50;;;;;;5049786;28;20486;-81
2023/08/04 00:20:12;;;;;;;2.07;1.97;;;26.00;62.50;;;;;;5049423;28;20469;-81
2023/08/04 00:22:40;;;;;;;2.10;2.00;;;26.00;62.50;;;;;;5046986;28;21334;-81
2023/08/04 00:25:11;;;;;;;1.77;1.67;;;26.00;62.50;;;;;;5050219;28;20534;-82
2023/08/04 00:27:39;;;;;;;3.07;2.53;;;26.00;62.50;;;;;;5047648;28;20527;-81
2023/08/04 00:30:10;;;;;;;2.20;2.10;;;26.00;62.50;;;;;;5042405;28;20860;-82
2023/08/04 00:32:38;;;;;;;1.87;1.77;;;26.00;62.50;;;;;;5041783;28;20465;-81
2023/08/04 00:35:07;;;;;;;2.20;2.10;;;26.00;62.50;;;;;;5042715;28;20486;-81
2023/08/04 00:37:35;;;;;;;1.87;1.77;;;26.00;62.60;;;;;;5040440;28;20477;-81
2023/08/04 00:40:04;;;;;;;1.80;1.70;;;26.00;62.60;;;;;;5047164;28;20449;-81
2023/08/04 00:42:33;;;;;;;2.10;2.00;;;26.00;62.60;;;;;;5044196;28;20940;-83
2023/08/04 00:45:03;;;;;;;2.37;2.27;;;26.00;62.60;;;;;;5039126;28;20571;-81
2023/08/04 00:47:35;;;;;;;1.73;1.63;;;26.00;62.60;;;;;;5047172;28;20447;-81
2023/08/04 00:50:04;;;;;;;1.60;1.50;;;26.00;62.60;;;;;;5042184;28;20449;-82
2023/08/04 00:52:33;;;;;;;1.97;1.77;;;26.00;62.70;;;;;;5042749;28;20524;-82
2023/08/04 00:55:01;;;;;;;2.13;2.00;;;26.00;62.70;;;;;;5039618;28;20829;-80
2023/08/04 00:57:30;;;;;;;2.00;1.90;;;26.00;62.70;;;;;;5043540;28;20463;-81
2023/08/04 00:59:59;;;;;;;1.80;1.70;;;26.00;62.70;;;;;;5044112;28;20874;-82
2023/08/04 01:02:27;;;;;;;1.70;1.60;;;25.90;62.70;;;;;;5044506;28;20469;-83
2023/08/04 01:04:56;;;;;;;1.70;1.60;;;25.90;62.70;;;;;;5043409;28;20556;-80
2023/08/04 01:07:28;;;;;;;1.70;1.60;;;25.90;62.70;;;;;;5046081;28;20829;-81
2023/08/04 01:10:08;;;;;;;1.70;1.60;;;25.90;62.70;;;;;;5044531;28;20459;-81
2023/08/04 01:12:49;;;;;;;1.67;1.57;;;25.90;62.70;;;;;;5042564;28;20448;-81
2023/08/04 01:15:19;;;;;;;1.77;1.50;;;25.90;62.70;;;;;;5046332;28;20989;-83
2023/08/04 01:17:47;;;;;;;1.70;1.60;;;25.90;62.70;;;;;;5043506;28;21046;-81
2023/08/04 01:20:16;;;;;;;1.60;1.50;;;25.90;62.70;;;;;;5043274;28;20443;-81
2023/08/04 01:22:45;;;;;;;1.20;1.20;;;25.90;62.70;;;;;;5040225;28;20527;-81
2023/08/04 01:25:14;;;;;;;1.33;1.23;;;25.90;62.80;;;;;;5044512;28;20475;-81
2023/08/04 01:27:44;;;;;;;1.57;1.47;;;25.90;62.80;;;;;;5040850;28;20460;-81
2023/08/04 01:30:20;;;;;;;1.30;1.30;;;25.90;62.80;;;;;;5042764;28;20496;-81
2023/08/04 01:32:49;;;;;;;1.50;1.40;;;25.90;62.80;;;;;;5043223;28;20811;-81
2023/08/04 01:35:17;;;;;;;1.80;1.70;;;25.90;62.80;;;;;;5042349;28;20450;-81
2023/08/04 01:37:47;;;;;;;1.47;1.37;;;25.90;62.80;;;;;;5046176;28;20517;-81
2023/08/04 01:40:16;;;;;;;2.00;1.30;;;25.80;62.80;;;;;;5045026;28;20560;-80
2023/08/04 01:42:45;;;;;;;1.13;1.13;;;25.80;62.80;;;;;;5037358;28;20525;-82
2023/08/04 01:45:13;;;;;;;1.50;1.40;;;25.80;62.90;;;;;;5046031;28;20487;-81
2023/08/04 01:47:42;;;;;;;1.73;1.40;;;25.80;62.90;;;;;;5041825;28;20482;-81
2023/08/04 01:50:11;;;;;;;1.67;1.57;;;25.80;62.90;;;;;;5041329;28;20459;-82
2023/08/04 01:52:39;;;;;;;1.27;1.17;;;25.80;62.90;;;;;;5040778;28;20463;-81
2023/08/04 01:55:09;;;;;;;2.00;1.13;;;25.80;62.90;;;;;;5044832;28;20949;-80
2023/08/04 01:57:38;;;;;;;1.27;1.17;;;25.80;62.90;;;;;;5042002;28;20477;-81
2023/08/04 02:00:08;;;;;;;1.33;1.33;;;25.80;62.90;;;;;;5040088;28;20437;-81
2023/08/04 02:02:39;;;;;;;1.27;1.17;;;25.80;62.90;;;;;;5045627;28;20553;-82
2023/08/04 02:05:08;;;;;;;2.03;1.30;;;25.80;62.90;;;;;;5041641;28;20973;-81
2023/08/04 02:07:36;;;;;;;1.23;1.20;;;25.80;63.00;;;;;;5045938;28;20526;-81
2023/08/04 02:10:05;;;;;;;1.17;1.10;;;25.80;63.00;;;;;;5038616;28;20848;-82
2023/08/04 02:12:34;;;;;;;2.80;1.50;;;25.80;63.00;;;;;;5044962;28;20460;-81
2023/08/04 02:15:03;;;;;;;3.30;1.80;;;25.80;63.00;;;;;;5041013;28;20477;-82
2023/08/04 02:17:31;;;;;;;1.50;1.40;;;25.80;63.00;;;;;;5045296;28;20460;-81
2023/08/04 02:19:59;;;;;;;1.33;1.23;;;25.70;63.00;;;;;;5043122;28;20459;-81
2023/08/04 02:22:28;;;;;;;3.67;3.10;;;25.70;63.00;;;;;;5044286;28;20518;-81
2023/08/04 02:24:58;;;;;;;1.70;1.30;;;25.70;63.00;;;;;;5039021;28;20486;-81
2023/08/04 02:27:26;;;;;;;1.33;1.23;;;25.70;63.00;;;;;;5049108;28;20464;-80
2023/08/04 02:29:55;;;;;;;1.03;1.03;;;25.70;63.00;;;;;;5048254;28;20479;-81
2023/08/04 02:32:24;;;;;;;1.10;1.10;;;25.70;63.00;;;;;;5048958;28;20995;-81
2023/08/04 02:34:52;;;;;;;1.33;1.23;;;25.70;63.00;;;;;;5050643;28;21017;-81
2023/08/04 02:37:22;;;;;;;1.50;1.40;;;25.70;63.10;;;;;;5053121;28;21155;-82
2023/08/04 02:39:50;;;;;;;1.37;1.27;;;25.70;63.10;;;;;;5049371;28;20456;-82
2023/08/04 02:42:18;;;;;;;1.43;1.33;;;25.70;63.10;;;;;;5043927;28;20472;-81
2023/08/04 02:44:46;;;;;;;1.27;1.17;;;25.70;63.10;;;;;;5051007;28;20530;-81
2023/08/04 02:47:16;;;;;;;1.30;1.20;;;25.70;63.10;;;;;;5041569;28;20456;-81
2023/08/04 02:49:44;;;;;;;1.17;1.17;;;25.70;63.10;;;;;;5044147;28;20924;-80
2023/08/04 02:52:14;;;;;;;1.20;1.10;;;25.70;63.10;;;;;;5043455;28;20437;-81
2023/08/04 02:54:43;;;;;;;1.00;0.90;;;25.70;63.10;;;;;;5045495;28;20437;-81
2023/08/04 02:57:12;;;;;;;1.03;0.93;;;25.70;63.10;;;;;;5041974;28;20543;-81
2023/08/04 02:59:40;;;;;;;0.90;0.90;;;25.70;63.10;;;;;;5045759;28;21253;-81
2023/08/04 03:02:08;;;;;;;0.90;0.90;;;25.70;63.10;;;;;;5043615;28;20445;-81
2023/08/04 03:04:39;;;;;;;1.20;1.10;;;25.70;63.10;;;;;;5043897;28;20492;-82
2023/08/04 03:07:07;;;;;;;0.90;0.90;;;25.70;63.10;;;;;;5048345;28;20456;-81
2023/08/04 03:09:35;;;;;;;1.00;1.00;;;25.70;63.10;;;;;;5045018;28;20456;-81
2023/08/04 03:12:04;;;;;;;0.90;0.90;;;25.70;63.10;;;;;;5047164;28;20873;-81
2023/08/04 03:14:33;;;;;;;1.20;1.10;;;25.70;63.10;;;;;;5046561;28;20851;-81
2023/08/04 03:17:01;;;;;;;4.00;1.10;;;25.70;63.20;;;;;;5046048;28;20445;-81
2023/08/04 03:19:29;;;;;;;1.47;1.37;;;25.70;63.20;;;;;;5047771;28;20468;-81
2023/08/04 03:21:59;;;;;;;0.90;0.90;;;25.70;63.10;;;;;;5047426;28;20469;-81
2023/08/04 03:24:27;;;;;;;0.97;0.97;;;25.70;63.20;;;;;;5041533;28;20522;-81
2023/08/04 03:26:55;;;;;;;0.93;0.90;;;25.70;63.20;;;;;;5044132;28;20458;-81
2023/08/04 03:29:23;;;;;;;1.27;1.17;;;25.60;63.20;;;;;;5048104;28;20544;-80
2023/08/04 03:31:52;;;;;;;1.70;1.20;;;25.60;63.20;;;;;;5044967;28;20500;-81
2023/08/04 03:34:20;;;;;;;1.00;1.00;;;25.60;63.20;;;;;;5045405;28;21083;-82
2023/08/04 03:36:48;;;;;;;0.90;0.90;;;25.60;63.20;;;;;;5047019;28;20461;-81
2023/08/04 03:39:18;;;;;;;0.80;0.80;;;25.60;63.20;;;;;;5046636;28;20507;-81
2023/08/04 03:41:46;;;;;;;0.93;0.93;;;25.60;63.20;;;;;;5043864;28;20494;-82
2023/08/04 03:44:15;;;;;;;0.80;0.80;;;25.60;63.20;;;;;;5048714;28;21022;-81
2023/08/04 03:46:43;;;;;;;1.10;0.90;;;25.60;63.20;;;;;;5043192;28;20484;-81
2023/08/04 03:49:11;;;;;;;1.43;0.90;;;25.60;63.20;;;;;;5044133;28;20526;-81
2023/08/04 03:51:39;;;;;;;0.93;0.93;;;25.60;63.30;;;;;;5044473;28;20491;-81
2023/08/04 03:54:07;;;;;;;0.90;0.90;;;25.60;63.30;;;;;;5044633;28;20492;-80
2023/08/04 03:56:37;;;;;;;0.70;0.70;;;25.60;63.30;;;;;;5048482;28;20858;-81
2023/08/04 03:59:08;;;;;;;1.90;0.97;;;25.60;63.30;;;;;;5045119;28;20524;-80
2023/08/04 04:01:36;;;;;;;0.93;0.93;;;25.60;63.30;;;;;;5043950;28;20978;-80
2023/08/04 04:04:05;;;;;;;0.77;0.77;;;25.60;63.30;;;;;;5044408;28;20438;-81
2023/08/04 04:06:33;;;;;;;1.37;1.27;;;25.60;63.30;;;;;;5043912;28;20560;-81
2023/08/04 04:09:02;;;;;;;1.00;1.00;;;25.60;63.30;;;;;;5041482;28;20891;-81
2023/08/04 04:11:30;;;;;;;0.87;0.87;;;25.60;63.30;;;;;;5049844;28;20459;-81
2023/08/04 04:14:00;;;;;;;0.70;0.70;;;25.50;63.30;;;;;;5047224;28;20485;-81
2023/08/04 04:16:30;;;;;;;0.90;0.90;;;25.50;63.30;;;;;;5045234;28;20441;-80
2023/08/04 04:18:58;;;;;;;1.00;1.00;;;25.60;63.30;;;;;;5040882;28;20469;-80
2023/08/04 04:21:26;;;;;;;2.07;0.87;;;25.50;63.30;;;;;;5042615;28;21172;-81
2023/08/04 04:23:54;;;;;;;1.00;0.90;;;25.50;63.30;;;;;;5050216;28;20459;-81
2023/08/04 04:26:22;;;;;;;1.10;1.00;;;25.50;63.40;;;;;;5044054;28;21059;-81
2023/08/04 04:28:51;;;;;;;1.70;1.03;;;25.50;63.40;;;;;;5043131;28;20960;-82
2023/08/04 04:31:20;;;;;;;1.03;0.70;;;25.50;63.40;;;;;;5045489;28;20487;-81
2023/08/04 04:33:48;;;;;;;1.13;0.80;;;25.50;63.40;;;;;;5050534;28;20480;-81
2023/08/04 04:36:17;;;;;;;0.90;0.90;;;25.50;63.40;;;;;;5044197;28;20507;-81
2023/08/04 04:38:45;;;;;;;1.20;1.10;;;25.50;63.40;;;;;;5040111;28;20463;-81
2023/08/04 04:41:13;;;;;;;0.90;0.90;;;25.50;63.40;;;;;;5045536;28;20894;-81
2023/08/04 04:43:41;;;;;;;1.13;1.03;;;25.50;63.40;;;;;;5048287;28;20532;-80
2023/08/04 04:46:10;;;;;;;1.00;1.00;;;25.50;63.40;;;;;;5049194;28;20688;-81
2023/08/04 04:48:41;;;;;;;0.80;0.80;;;25.50;63.40;;;;;;5046263;28;20467;-81
2023/08/04 04:51:09;;;;;;;1.53;1.20;;;25.50;63.40;;;;;;5045311;28;20465;-81
2023/08/04 04:53:37;;;;;;;1.20;1.10;;;25.50;63.40;;;;;;5050201;28;20455;-81
2023/08/04 04:56:07;;;;;;;0.90;0.90;;;25.50;63.40;;;;;;5047724;28;20487;-81
2023/08/04 04:58:35;;;;;;;0.80;0.80;;;25.50;63.40;;;;;;5045542;28;20460;-81
2023/08/04 05:01:04;;;;;;;1.33;1.17;;;25.50;63.40;;;;;;5042468;28;20498;-81
2023/08/04 05:03:32;;;;;;;0.73;0.70;;;25.50;63.50;;;;;;5058896;28;20442;-82
2023/08/04 05:06:02;;;;;;;3.47;1.07;;;25.50;63.50;;;;;;5045990;28;20951;-82
2023/08/04 05:08:30;;;;;;;0.80;0.80;;;25.50;63.60;;;;;;5039252;28;20487;-81
2023/08/04 05:10:58;;;;;;;0.97;0.97;;;25.50;63.60;;;;;;5043803;28;20519;-81
2023/08/04 05:13:26;;;;;;;1.23;1.13;;;25.50;63.60;;;;;;5048106;28;20476;-81
2023/08/04 05:15:54;;;;;;;0.90;0.90;;;25.50;63.70;;;;;;5046015;28;20460;-80
2023/08/04 05:18:23;;;;;;;2.80;1.40;;;25.50;63.60;;;;;;5038501;28;20561;-81
2023/08/04 05:20:51;;;;;;;1.60;0.80;;;25.50;63.60;;;;;;5045633;28;20941;-81
2023/08/04 05:23:22;;;;;;;1.00;0.90;;;25.50;63.70;;;;;;5043581;28;20548;-82
2023/08/04 05:25:51;;;;;;;2.50;1.20;;;25.50;63.70;;;;;;5042753;28;20510;-82
2023/08/04 05:28:22;;;;;;;0.97;0.70;;;25.50;63.70;;;;;;5044833;28;20980;-81
2023/08/04 05:30:54;;;;;;;0.80;0.80;;;25.50;63.60;;;;;;5048448;28;20461;-81
2023/08/04 05:33:23;;;;;;;1.47;0.87;;;25.50;63.60;;;;;;5050628;28;20462;-81
2023/08/04 05:35:52;;;;;;;2.10;0.90;;;25.50;63.60;;;;;;5046291;28;20492;-81
2023/08/04 05:38:22;;;;;;;1.00;1.00;;;25.50;63.60;;;;;;5036839;28;20473;-83
2023/08/04 05:40:50;;;;;;;1.13;0.83;;;25.50;63.60;;;;;;5039585;28;20501;-82
2023/08/04 05:43:18;;;;;;;1.30;1.20;;;25.50;63.70;;;;;;5049618;28;20452;-81
2023/08/04 05:45:48;;;;;;;3.40;1.27;;;25.50;63.70;;;;;;5039822;28;20507;-81
2023/08/04 05:48:16;;;;;;;1.53;0.80;;;25.50;63.60;;;;;;5042530;28;20441;-81
2023/08/04 05:50:45;;;;;;;1.23;1.17;;;25.50;63.60;;;;;;5047622;28;20519;-81
2023/08/04 05:53:14;;;;;;;1.10;1.00;;;25.50;63.60;;;;;;5040702;28;20460;-81
2023/08/04 05:55:43;;;;;;;1.23;0.83;;;25.50;63.60;;;;;;5042145;28;20550;-81
2023/08/04 05:58:11;;;;;;;1.67;1.10;;;25.50;63.60;;;;;;5039986;28;20456;-81
2023/08/04 06:00:40;;;;;;;1.00;1.00;;;25.50;63.50;;;;;;5046014;28;20597;-81
2023/08/04 06:03:08;;;;;;;1.00;0.90;;;25.50;63.50;;;;;;5045775;28;20550;-82
2023/08/04 06:05:36;;;;;;;1.03;1.00;;;25.50;63.50;;;;;;5041379;28;20501;-80
2023/08/04 06:08:04;;;;;;;1.03;0.83;;;25.50;63.50;;;;;;5048115;28;20533;-81
2023/08/04 06:10:33;;;;;;;1.33;0.87;;;25.50;63.50;;;;;;5050742;28;20532;-82
2023/08/04 06:13:04;;;;;;;2.50;1.20;;;25.50;63.50;;;;;;5048799;28;20457;-81
2023/08/04 06:15:33;;;;;;;1.20;1.07;;;25.50;63.60;;;;;;5061479;28;20522;-81
2023/08/04 06:18:01;;;;;;;1.50;1.40;;;25.50;63.60;;;;;;5051369;28;20456;-81
2023/08/04 06:20:30;;;;;;;1.33;1.23;;;25.60;63.60;;;;;;5051042;28;20539;-81
2023/08/04 06:22:58;;;;;;;1.87;1.00;;;25.60;63.70;;;;;;5054263;28;20518;-81
2023/08/04 06:25:26;;;;;;;1.10;1.00;;;25.60;63.60;;;;;;5053707;28;20784;-81
2023/08/04 06:27:54;;;;;;;2.90;1.07;;;25.60;63.60;;;;;;5050989;28;20514;-81
2023/08/04 06:30:25;;;;;;;3.23;1.13;;;25.60;63.70;;;;;;5058713;28;20977;-81
2023/08/04 06:32:53;;;;;;;3.23;1.10;;;25.60;63.70;;;;;;5067354;28;20828;-81
2023/08/04 06:35:21;;;;;;;2.57;1.37;;;25.60;63.80;;;;;;5079260;28;20535;-81
2023/08/04 06:37:50;;;;;;;1.00;0.90;;;25.60;64.00;;;;;;5064162;28;20460;-81
2023/08/04 06:40:18;;;;;;;1.60;0.90;;;25.60;63.90;;;;;;5047254;28;20533;-83
2023/08/04 06:42:47;;;;;;;1.63;1.30;;;25.60;64.00;;;;;;5050019;28;20547;-83
2023/08/04 06:45:15;;;;;;;2.53;1.50;;;25.60;64.10;;;;;;5048904;28;20855;-83
2023/08/04 06:47:45;;;;;;;3.40;1.33;;;25.60;64.10;;;;;;5046546;28;20867;-82
2023/08/04 06:50:13;;;;;;;2.43;1.30;;;25.70;64.10;;;;;;5047859;28;21011;-82
2023/08/04 06:52:41;;;;;;;2.50;1.20;;;25.70;64.00;;;;;;5049268;28;20522;-83
2023/08/04 06:55:10;;;;;;;1.83;1.30;;;25.70;63.90;;;;;;5047190;28;20522;-83
2023/08/04 06:57:38;;;;;;;2.97;1.50;;;25.70;63.90;;;;;;5049636;28;20459;-83
2023/08/04 07:00:08;;;;;;;1.30;1.20;;;25.70;63.90;;;;;;5049399;28;20500;-82
2023/08/04 07:02:37;;;;;;;2.97;1.40;;;25.70;63.80;;;;;;5051890;28;20457;-83
2023/08/04 07:05:07;;;;;;;4.00;1.73;;;25.70;63.90;;;;;;5049814;28;20549;-84
2023/08/04 07:07:35;;;;;;;1.90;1.20;;;25.70;63.80;;;;;;5044332;28;20480;-84
2023/08/04 07:10:04;;;;;;;10.37;1.50;;;25.70;64.00;;;;;;5048222;28;20461;-83
2023/08/04 07:12:33;;;;;;;5.40;1.40;;;25.70;63.80;;;;;;5049570;28;20457;-83
2023/08/04 07:15:01;;;;;;;2.40;1.23;;;25.70;63.90;;;;;;5050705;28;20536;-83
2023/08/04 07:17:29;;;;;;;1.50;1.20;;;25.70;63.90;;;;;;5043033;28;20474;-83
2023/08/04 07:19:58;;;;;;;3.53;1.60;;;25.70;63.80;;;;;;5050055;28;20456;-83
2023/08/04 07:22:28;;;;;;;3.00;2.60;;;25.70;63.80;;;;;;5045218;28;20458;-82
2023/08/04 07:24:58;;;;;;;4.40;1.10;;;25.70;63.80;;;;;;5047522;28;20813;-82
2023/08/04 07:27:26;;;;;;;1.07;0.93;;;25.70;63.80;;;;;;5048312;28;20512;-82
2023/08/04 07:29:54;;;;;;;3.17;1.50;;;25.70;63.80;;;;;;5049627;28;20494;-82
2023/08/04 07:32:22;;;;;;;2.03;1.20;;;25.70;63.70;;;;;;5049865;28;20480;-83
2023/08/04 07:34:51;;;;;;;2.43;1.40;;;25.70;63.90;;;;;;5046692;28;20827;-83
2023/08/04 07:37:19;;;;;;;1.60;1.13;;;25.70;63.90;;;;;;5045987;28;20517;-82
2023/08/04 07:39:49;;;;;;;2.77;1.13;;;25.70;63.70;;;;;;5059241;28;20461;-82
2023/08/04 07:42:17;;;;;;;6.20;1.30;;;25.70;63.70;;;;;;5053936;28;20512;-83
2023/08/04 07:44:45;;;;;;;4.67;1.07;;;25.70;63.70;;;;;;5058463;28;20468;-82
2023/08/04 07:47:13;;;;;;;1.93;1.60;;;25.80;64.00;;;;;;5063222;28;20483;-83
2023/08/04 07:49:41;;;;;;;1.43;1.33;;;25.70;63.80;;;;;;5066686;28;20448;-85
2023/08/04 07:52:10;;;;;;;1.47;1.00;;;25.70;63.80;;;;;;5048979;28;20490;-83
2023/08/04 07:54:38;;;;;;;2.50;1.20;;;25.80;63.80;;;;;;5045209;28;20476;-82
2023/08/04 07:57:09;;;;;;;2.20;1.23;;;25.80;63.70;;;;;;5051054;28;20462;-83
2023/08/04 07:59:37;;;;;;;3.10;1.37;;;25.80;63.80;;;;;;5048417;28;20492;-83
2023/08/04 08:02:06;;;;;;;3.03;1.53;;;25.80;63.60;;;;;;5046194;28;20461;-83
2023/08/04 08:04:34;;;;;;;1.40;1.23;;;25.80;63.60;;;;;;5049071;28;20511;-84
2023/08/04 08:07:02;;;;;;;4.00;3.40;;;25.80;63.70;;;;;;5044337;28;20489;-83
2023/08/04 08:09:30;;;;;;;1.70;1.00;;;25.80;63.80;;;;;;5043407;28;20467;-85
2023/08/04 08:11:59;;;;;;;4.33;1.27;;;25.90;63.60;;;;;;5048207;28;20511;-83
2023/08/04 08:14:28;;;;;;;2.30;1.00;;;25.90;63.50;;;;;;5044623;28;20465;-83
2023/08/04 08:16:56;;;;;;;1.00;0.90;;;25.90;63.60;;;;;;5049090;28;20479;-83
2023/08/04 08:19:25;;;;;;;2.10;1.67;;;25.90;63.60;;;;;;5051182;28;20461;-83
2023/08/04 08:21:53;;;;;;;1.20;0.90;;;25.90;63.50;;;;;;5047036;28;20523;-83
2023/08/04 08:24:22;;;;;;;2.33;1.10;;;25.90;63.60;;;;;;5042391;28;20488;-84
2023/08/04 08:26:50;;;;;;;3.53;1.00;;;25.90;63.90;;;;;;5052061;28;20925;-82
2023/08/04 08:29:18;;;;;;;2.43;1.20;;;25.90;63.70;;;;;;5052498;28;20527;-82
2023/08/04 08:31:53;;;;;;;1.83;1.07;;;25.90;63.90;;;;;;5043532;28;20446;-83
2023/08/04 08:34:21;;;;;;;2.33;1.10;;;25.90;63.90;;;;;;5050859;28;20470;-83
2023/08/04 08:36:49;;;;;;;1.73;1.63;;;25.90;63.80;;;;;;5050783;28;20457;-82
2023/08/04 08:39:17;;;;;;;1.83;1.00;;;25.90;63.60;;;;;;5043912;28;20525;-82
2023/08/04 08:41:45;;;;;;;1.00;1.00;;;25.90;63.90;;;;;;5047635;28;20489;-83
2023/08/04 08:44:14;;;;;;;1.33;1.00;;;25.90;63.70;;;;;;5045757;28;20468;-82
2023/08/04 08:46:42;;;;;;;2.10;1.20;;;25.90;63.70;;;;;;5046080;28;20861;-83
2023/08/04 08:49:13;;;;;;;4.60;1.47;;;25.80;63.60;;;;;;5048287;28;21165;-83
2023/08/04 08:51:47;;;;;;;2.00;1.40;;;25.90;63.80;;;;;;5047228;28;20466;-84
2023/08/04 08:54:17;;;;;;;0.70;0.70;;;25.90;63.80;;;;;;5041566;28;20465;-82
2023/08/04 08:56:46;;;;;;;1.60;1.00;;;25.90;63.60;;;;;;5048066;28;20478;-83
2023/08/04 08:59:14;;;;;;;2.73;1.40;;;25.90;63.70;;;;;;5043235;28;20477;-83
2023/08/04 09:01:42;;;;;;;1.40;1.20;;;25.90;63.90;;;;;;5040656;28;20869;-85
2023/08/04 09:04:12;;;;;;;3.60;0.93;;;25.90;63.70;;;;;;5046550;28;20461;-83
2023/08/04 09:06:40;;;;;;;1.23;1.13;;;25.90;63.70;;;;;;5045208;28;20802;-84
2023/08/04 09:09:08;;;;;;;0.93;0.83;;;25.90;63.60;;;;;;5041562;28;20488;-83
2023/08/04 09:11:37;;;;;;;1.73;1.20;;;25.90;63.60;;;;;;5041509;28;20516;-83
2023/08/04 09:14:07;;;;;;;1.03;0.83;;;25.90;63.60;;;;;;5045547;28;20511;-84
2023/08/04 09:16:39;;;;;;;2.50;1.00;;;25.90;63.70;;;;;;5055398;28;20952;-83
2023/08/04 09:19:08;;;;;;;1.33;1.03;;;25.90;63.60;;;;;;5052550;28;20469;-83
2023/08/04 09:21:38;;;;;;;0.97;0.87;;;25.90;63.60;;;;;;5049755;28;20861;-83
2023/08/04 09:24:10;;;;;;;4.30;1.53;;;25.90;63.70;;;;;;5052041;28;20452;-83
2023/08/04 09:26:43;;;;;;;1.70;0.90;;;25.90;63.60;;;;;;5044002;28;20452;-83
2023/08/04 09:29:12;;;;;;;0.67;0.67;;;25.90;63.60;;;;;;5053894;28;20535;-83
2023/08/04 09:31:44;;;;;;;1.73;0.97;;;25.90;63.60;;;;;;5053345;28;20462;-83
2023/08/04 09:34:12;;;;;;;1.03;0.73;;;25.90;63.70;;;;;;5044969;28;21507;-83
2023/08/04 09:36:44;;;;;;;1.17;1.07;;;25.90;63.60;;;;;;5050797;28;20512;-84
2023/08/04 09:39:13;;;;;;;2.27;1.07;;;26.00;63.60;;;;;;5045600;28;20967;-84
2023/08/04 09:41:44;;;;;;;2.20;1.03;;;26.00;63.50;;;;;;5041102;28;20501;-83
2023/08/04 09:44:14;;;;;;;1.53;1.10;;;26.00;63.40;;;;;;5045997;28;20523;-83
2023/08/04 09:46:49;;;;;;;1.73;1.20;;;26.00;63.40;;;;;;5049715;28;20451;-83
2023/08/04 09:49:19;;;;;;;3.67;0.90;;;26.10;63.30;;;;;;5036648;28;20484;-82
2023/08/04 09:51:50;;;;;;;1.90;1.00;;;26.10;63.30;;;;;;5043543;28;20959;-83
2023/08/04 09:54:19;;;;;;;2.43;0.93;;;26.10;63.30;;;;;;5050503;28;20466;-83
2023/08/04 09:56:48;;;;;;;2.80;2.60;;;26.10;63.20;;;;;;5045836;28;20452;-83
2023/08/04 09:59:18;;;;;;;2.43;1.50;;;26.10;63.00;;;;;;5050202;28;20466;-83
2023/08/04 10:01:49;;;;;;;1.27;1.00;;;26.10;63.00;;;;;;5050490;28;20486;-83
2023/08/04 10:04:19;;;;;;;2.07;1.37;;;26.10;63.10;;;;;;5047547;28;20460;-81
2023/08/04 10:06:53;;;;;;;1.53;0.90;;;26.10;63.00;;;;;;5042142;28;20463;-83
2023/08/04 10:09:23;;;;;;;1.60;0.80;;;26.10;63.00;;;;;;5042906;28;21523;-84
2023/08/04 10:11:51;;;;;;;2.80;1.20;;;26.10;62.90;;;;;;5041596;28;20481;-85
2023/08/04 10:14:20;;;;;;;1.57;0.87;;;26.10;63.10;;;;;;5041898;28;20467;-85
2023/08/04 10:16:48;;;;;;;1.17;0.70;;;26.20;63.20;;;;;;5049491;28;20465;-86
2023/08/04 10:19:19;;;;;;;1.00;1.00;;;26.20;63.10;;;;;;5045623;28;20498;-84
2023/08/04 10:21:47;;;;;;;3.20;1.27;;;26.20;63.00;;;;;;5043718;28;20486;-85
2023/08/04 10:24:20;;;;;;;1.90;1.10;;;26.30;62.90;;;;;;5041766;28;20555;-85
2023/08/04 10:26:51;;;;;;;4.33;1.30;;;26.30;62.90;;;;;;5043562;28;20466;-85
2023/08/04 10:29:20;;;;;;;1.00;0.90;;;26.20;62.80;;;;;;5047831;28;20495;-84
2023/08/04 10:31:51;;;;;;;2.37;1.33;;;26.20;62.90;;;;;;5046537;28;20556;-85
2023/08/04 10:34:26;;;;;;;3.47;1.70;;;26.20;62.90;;;;;;5044293;28;20462;-86
2023/08/04 10:37:06;;;;;;;0.80;0.70;;;26.20;62.90;;;;;;5038403;28;20477;-85
2023/08/04 10:39:37;;;;;;;1.33;0.80;;;26.20;62.90;;;;;;5047752;28;20458;-86
2023/08/04 10:42:14;;;;;;;5.17;1.60;;;26.20;63.10;;;;;;5045153;28;20573;-86
2023/08/04 10:44:51;;;;;;;5.23;1.20;;;26.20;63.30;;;;;;5038109;28;20458;-88
2023/08/04 10:47:42;;;;;;;1.07;0.93;;;26.20;63.50;;;;;;5040813;28;20455;-84
2023/08/04 10:50:30;;;;;;;1.83;1.10;;;26.30;63.40;;;;;;5046790;28;20855;-83
2023/08/04 10:52:58;;;;;;;2.40;1.60;;;26.30;63.50;;;;;;5044859;28;21099;-86
2023/08/04 10:55:28;;;;;;;1.50;1.40;;;26.30;63.50;;;;;;5052122;28;20469;-83
2023/08/04 10:57:57;;;;;;;3.23;1.53;;;26.30;63.50;;;;;;5052505;28;20455;-84
2023/08/04 11:00:25;;;;;;;2.03;1.17;;;26.30;63.40;;;;;;5051244;28;20459;-83
2023/08/04 11:02:53;;;;;;;1.57;1.20;;;26.30;63.50;;;;;;5055265;28;20500;-84
2023/08/04 11:05:23;;;;;;;1.17;0.90;;;26.30;63.30;;;;;;5053333;28;20451;-85
2023/08/04 11:07:52;;;;;;;1.90;1.30;;;26.30;63.30;;;;;;5055899;28;20545;-84
2023/08/04 11:10:21;;;;;;;2.57;1.30;;;26.30;63.30;;;;;;5051204;28;20474;-84
2023/08/04 11:12:54;;;;;;;2.73;1.50;;;26.30;63.40;;;;;;5048705;28;20485;-86
2023/08/04 11:15:23;;;;;;;1.20;1.00;;;26.30;63.40;;;;;;5046371;28;20485;-83
2023/08/04 11:17:51;;;;;;;2.10;1.50;;;26.30;63.30;;;;;;5060474;28;20589;-84
2023/08/04 11:20:20;;;;;;;1.87;1.10;;;26.30;63.40;;;;;;5045722;28;20464;-86
2023/08/04 11:23:01;;;;;;;2.30;1.47;;;26.30;63.40;;;;;;5050561;28;20552;-84
2023/08/04 11:25:33;;;;;;;2.60;1.50;;;26.30;63.50;;;;;;5042599;28;20457;-89
2023/08/04 11:28:04;;;;;;;3.70;1.10;;;26.30;63.80;;;;;;5050052;28;20460;-89
2023/08/04 11:30:34;;;;;;;4.20;1.50;;;26.20;64.00;;;;;;5049307;28;20538;-85
2023/08/04 11:33:02;;;;;;;2.33;1.30;;;26.20;64.10;;;;;;5042133;28;20461;-87
2023/08/04 11:35:32;;;;;;;1.57;1.10;;;26.20;64.20;;;;;;5043991;28;20472;-84
2023/08/04 11:38:02;;;;;;;1.60;1.00;;;26.30;64.00;;;;;;5043578;28;20559;-84
2023/08/04 11:40:31;;;;;;;1.20;1.10;;;26.30;64.10;;;;;;5045135;28;20507;-85
2023/08/04 11:43:00;;;;;;;1.30;1.10;;;26.40;64.10;;;;;;5044180;28;20802;-83
2023/08/04 11:45:32;;;;;;;1.70;1.33;;;26.40;64.20;;;;;;5048978;28;20820;-83
2023/08/04 11:48:01;;;;;;;0.90;0.90;;;26.40;64.10;;;;;;5045137;28;20465;-83
2023/08/04 11:50:30;;;;;;;1.90;1.30;;;26.50;64.00;;;;;;5040424;28;20472;-83
2023/08/04 11:52:58;;;;;;;2.40;1.13;;;26.50;64.00;;;;;;5041713;28;20549;-82
2023/08/04 11:55:26;;;;;;;4.13;1.33;;;26.50;63.90;;;;;;5047372;28;20813;-82
2023/08/04 11:57:56;;;;;;;1.73;1.10;;;26.40;63.90;;;;;;5046180;28;21017;-82
2023/08/04 12:00:36;;;;;;;2.20;1.10;;;26.40;63.90;;;;;;5045683;28;20461;-86
2023/08/04 12:03:05;;;;;;;1.40;1.30;;;26.40;64.00;;;;;;5046489;28;20465;-84
2023/08/04 12:05:38;;;;;;;6.80;1.70;;;26.30;64.10;;;;;;5043714;28;20469;-84
2023/08/04 12:08:12;;;;;;;4.23;1.80;;;26.30;64.10;;;;;;5046310;28;20456;-83
2023/08/04 12:10:41;;;;;;;2.83;2.40;;;26.30;64.30;;;;;;5043723;28;20568;-82
2023/08/04 12:13:09;;;;;;;3.03;1.70;;;26.20;64.30;;;;;;5046888;28;20486;-82
2023/08/04 12:18:31;;;;;;;2.60;1.47;;;26.30;64.50;;;;;;5095532;27;20584;-81
2023/08/04 12:21:00;;;;;;;6.67;1.80;;;26.40;64.30;;;;;;5082424;28;20454;-75
2023/08/04 12:23:29;;;;;;;3.87;1.80;;;26.40;64.30;;;;;;5083076;28;20455;-75
2023/08/04 12:25:58;;;;;;;6.40;1.97;;;26.50;64.00;;;;;;5080981;28;20467;-81
2023/08/04 12:28:27;;;;;;;3.77;1.30;;;26.60;63.80;;;;;;5084105;28;20459;-88
2023/08/04 12:30:55;;;;;;;1.60;1.20;;;26.60;63.70;;;;;;5084800;28;20480;-84
2023/08/04 12:33:44;;;;;;;1.70;1.60;;;26.60;63.50;;;;;;5081450;28;20505;-86
2023/08/04 12:36:13;;;;;;;2.10;1.60;;;26.60;63.50;;;;;;5089896;28;20941;-77
2023/08/04 12:38:41;;;;;;;2.03;1.50;;;26.70;63.40;;;;;;5072305;28;20447;-75
2023/08/04 12:41:10;;;;;;;2.50;2.03;;;26.70;63.10;;;;;;5074961;28;20472;-83
2023/08/04 12:43:38;;;;;;;1.20;1.00;;;26.70;62.90;;;;;;5073491;28;20460;-76
2023/08/04 12:46:06;;;;;;;1.53;1.17;;;26.80;62.90;;;;;;5076711;28;20571;-76
2023/08/04 12:48:35;;;;;;;2.07;1.27;;;26.80;62.90;;;;;;5070200;28;20462;-73
2023/08/04 12:51:05;;;;;;;1.93;1.00;;;26.90;62.80;;;;;;5074655;28;20479;-74
2023/08/04 12:53:34;;;;;;;4.70;1.63;;;27.00;62.80;;;;;;5089203;28;21330;-76
2023/08/04 12:56:04;;;;;;;1.20;1.10;;;27.10;62.50;;;;;;5072961;28;20467;-72
2023/08/04 12:58:33;;;;;;;1.67;1.30;;;27.10;62.30;;;;;;5085778;28;20462;-76
2023/08/04 13:01:01;;;;;;;2.03;1.80;;;27.10;62.20;;;;;;5081275;28;21030;-76